Time;durP1;ratioP1;P1;durP2;ratioP2;P2;SDS_P1;SDS_P2;PMS_P1;PMS_P2;Temp;Humidity;BMP_temperature;BMP_pressure;BME280_temperature;BME280_humidity;BME280_pressure;Samples;Min_cycle;Max_cycle;Signal;HPM_P1;HPM_P2
2022/01/01 00:01:47;;;;;;;6.22;3.28;;;11.50;99.90;;;;;;5099299;28;20031;-85
2022/01/01 00:04:12;;;;;;;6.28;3.20;;;11.50;99.90;;;;;;5116787;28;20487;-85
2022/01/01 00:06:38;;;;;;;5.32;3.35;;;11.50;99.90;;;;;;5098907;28;20110;-85
2022/01/01 00:09:04;;;;;;;5.00;3.17;;;11.50;99.90;;;;;;5098372;28;20032;-84
2022/01/01 00:11:30;;;;;;;5.38;2.90;;;11.50;99.90;;;;;;5098812;28;20023;-84
2022/01/01 00:13:55;;;;;;;5.38;3.28;;;11.50;99.90;;;;;;5098851;28;20031;-85
2022/01/01 00:16:21;;;;;;;5.88;3.22;;;11.50;99.90;;;;;;5116438;28;20239;-85
2022/01/01 00:18:47;;;;;;;6.35;3.50;;;11.50;99.90;;;;;;5098751;28;20031;-85
2022/01/01 00:21:12;;;;;;;6.40;3.80;;;11.40;99.90;;;;;;5098182;28;20069;-85
2022/01/01 00:23:38;;;;;;;5.60;3.53;;;11.40;99.90;;;;;;5116768;28;20047;-85
2022/01/01 00:26:03;;;;;;;6.55;3.45;;;11.40;99.90;;;;;;5098131;28;20115;-85
2022/01/01 00:28:29;;;;;;;5.30;3.40;;;11.40;99.90;;;;;;5098552;28;20035;-85
2022/01/01 00:30:55;;;;;;;4.97;3.08;;;11.40;99.90;;;;;;5116400;28;20051;-85
2022/01/01 00:33:21;;;;;;;7.97;3.25;;;11.40;99.90;;;;;;5097894;28;20039;-85
2022/01/01 00:35:46;;;;;;;4.15;2.72;;;11.40;99.90;;;;;;5098701;28;20028;-85
2022/01/01 00:38:12;;;;;;;5.43;2.97;;;11.40;99.90;;;;;;5097824;28;20110;-85
2022/01/01 00:40:38;;;;;;;5.63;3.10;;;11.40;99.90;;;;;;5098606;28;20023;-85
2022/01/01 00:43:04;;;;;;;6.78;3.00;;;11.30;99.90;;;;;;5097932;28;20121;-84
2022/01/01 00:45:30;;;;;;;4.60;2.75;;;11.30;99.90;;;;;;5098404;28;20077;-85
2022/01/01 00:47:55;;;;;;;6.70;3.20;;;11.30;99.90;;;;;;5098373;28;20032;-85
2022/01/01 00:50:21;;;;;;;4.68;2.58;;;11.30;99.90;;;;;;5097484;28;20461;-85
2022/01/01 00:52:50;;;;;;;5.05;2.83;;;11.30;99.90;;;;;;5098245;28;20036;-85
2022/01/01 00:55:15;;;;;;;4.07;2.55;;;11.30;99.90;;;;;;5097711;28;20448;-85
2022/01/01 00:57:41;;;;;;;4.85;2.30;;;11.20;99.90;;;;;;5098042;28;20024;-85
2022/01/01 01:00:07;;;;;;;3.50;2.30;;;11.20;99.90;;;;;;5097455;28;20030;-84
2022/01/01 01:02:33;;;;;;;3.58;2.13;;;11.20;99.90;;;;;;5097894;28;20084;-85
2022/01/01 01:04:59;;;;;;;4.20;2.33;;;11.20;99.90;;;;;;5097933;28;20031;-85
2022/01/01 01:07:25;;;;;;;3.30;2.33;;;11.20;99.90;;;;;;5097399;28;20032;-85
2022/01/01 01:09:50;;;;;;;2.70;1.95;;;11.20;99.90;;;;;;5097720;28;20452;-85
2022/01/01 01:12:22;;;;;;;2.90;2.10;;;11.20;99.90;;;;;;5115088;28;20036;-84
2022/01/01 01:14:48;;;;;;;;;;;11.20;99.90;;;;;;5098209;28;20020;-85
2022/01/01 01:17:14;;;;;;;5.03;2.08;;;11.20;99.90;;;;;;5097075;28;19904;-85
2022/01/01 01:19:39;;;;;;;5.78;3.47;;;11.20;99.90;;;;;;5097419;28;20047;-85
2022/01/01 01:22:05;;;;;;;4.80;3.30;;;11.20;99.90;;;;;;5097348;28;20052;-85
2022/01/01 01:24:33;;;;;;;5.10;3.10;;;11.20;99.90;;;;;;5115693;28;20487;-85
2022/01/01 01:27:01;;;;;;;6.10;3.35;;;11.20;99.90;;;;;;5097603;28;20024;-85
2022/01/01 01:29:27;;;;;;;6.53;4.00;;;11.20;99.90;;;;;;5097099;28;20031;-85
2022/01/01 01:31:52;;;;;;;9.80;5.13;;;11.10;99.90;;;;;;5097332;28;20023;-85
2022/01/01 01:34:18;;;;;;;11.00;6.68;;;11.10;99.90;;;;;;5096937;28;20130;-85
2022/01/01 01:36:44;;;;;;;14.60;7.22;;;11.10;99.90;;;;;;5115236;28;20027;-85
2022/01/01 01:39:10;;;;;;;22.80;9.45;;;11.00;99.90;;;;;;5096829;28;20024;-85
2022/01/01 01:41:36;;;;;;;17.27;10.13;;;11.00;99.90;;;;;;5096721;28;20110;-85
2022/01/01 01:44:21;;;;;;;17.10;9.73;;;10.90;99.90;;;;;;5097158;28;20031;-85
2022/01/01 01:46:46;;;;;;;18.75;9.20;;;10.90;99.90;;;;;;5097468;28;20028;-85
2022/01/01 01:49:12;;;;;;;17.88;9.63;;;10.90;99.90;;;;;;5096816;28;20164;-85
2022/01/01 01:51:38;;;;;;;19.52;8.98;;;10.90;99.90;;;;;;5097235;28;20028;-85
2022/01/01 01:54:04;;;;;;;17.10;9.23;;;10.80;99.90;;;;;;5097118;28;20028;-86
2022/01/01 01:56:30;;;;;;;19.42;9.57;;;10.80;99.90;;;;;;5096374;28;20042;-85
2022/01/01 01:58:55;;;;;;;16.73;9.35;;;10.80;99.90;;;;;;5097078;28;20031;-85
2022/01/01 02:01:23;;;;;;;16.77;8.88;;;10.80;99.90;;;;;;5096442;28;20039;-85
2022/01/01 02:03:49;;;;;;;19.25;8.73;;;10.80;99.90;;;;;;5096804;28;20027;-85
2022/01/01 02:06:16;;;;;;;17.85;9.07;;;10.70;99.90;;;;;;5114323;28;20514;-85
2022/01/01 02:08:42;;;;;;;19.25;9.57;;;10.70;99.90;;;;;;5096899;28;20027;-85
2022/01/01 02:11:08;;;;;;;17.27;8.60;;;10.70;99.90;;;;;;5114365;28;20028;-85
2022/01/01 02:14:13;;;;;;;15.75;9.05;;;10.70;99.90;;;;;;5096719;28;20035;-85
2022/01/01 02:16:32;;;;;;;14.00;7.13;;;10.70;99.90;;;;;;5111827;28;20028;-85
2022/01/01 02:18:58;;;;;;;18.13;10.00;;;10.70;99.90;;;;;;5114697;28;20028;-85
2022/01/01 02:21:24;;;;;;;15.20;9.25;;;10.70;99.90;;;;;;5096190;28;20039;-85
2022/01/01 02:23:56;;;;;;;16.00;8.52;;;10.70;99.90;;;;;;5114579;28;20079;-85
2022/01/01 02:26:34;;;;;;;15.52;8.65;;;10.70;99.90;;;;;;5095901;28;20032;-85
2022/01/01 02:29:00;;;;;;;16.38;8.50;;;10.70;99.90;;;;;;5114740;28;20076;-85
2022/01/01 02:31:26;;;;;;;15.27;8.27;;;10.70;99.90;;;;;;5096173;28;20032;-85
2022/01/01 02:33:52;;;;;;;15.35;8.00;;;10.70;99.90;;;;;;5114330;28;20483;-85
2022/01/01 02:36:36;;;;;;;13.25;7.63;;;10.70;99.90;;;;;;5095988;28;20134;-85
2022/01/01 02:39:19;;;;;;;15.40;8.05;;;10.70;99.90;;;;;;5096571;28;20028;-85
2022/01/01 02:41:47;;;;;;;18.10;8.70;;;10.70;99.90;;;;;;5114258;28;20032;-85
2022/01/01 02:44:13;;;;;;;14.75;7.60;;;10.70;99.90;;;;;;5095726;28;20024;-84
2022/01/01 02:46:39;;;;;;;16.88;8.25;;;10.70;99.90;;;;;;5096600;28;20020;-85
2022/01/01 02:49:05;;;;;;;15.45;8.63;;;10.70;99.90;;;;;;5114389;28;20053;-85
2022/01/01 02:51:31;;;;;;;17.17;8.07;;;10.60;99.90;;;;;;5095704;28;20206;-85
2022/01/01 02:53:57;;;;;;;13.95;8.13;;;10.60;99.90;;;;;;5096351;28;20055;-85
2022/01/01 02:56:23;;;;;;;15.25;8.60;;;10.60;99.90;;;;;;5095781;28;20465;-85
2022/01/01 02:58:49;;;;;;;16.30;8.30;;;10.60;99.90;;;;;;5096260;28;20031;-85
2022/01/01 03:01:15;;;;;;;17.95;8.68;;;10.60;99.90;;;;;;5095729;28;20032;-84
2022/01/01 03:03:41;;;;;;;17.25;9.30;;;10.60;99.90;;;;;;5096095;28;20127;-85
2022/01/01 03:06:07;;;;;;;19.38;9.55;;;10.50;99.90;;;;;;5096221;28;20020;-85
2022/01/01 03:08:32;;;;;;;18.38;8.88;;;10.50;99.90;;;;;;5095607;28;20077;-84
2022/01/01 03:10:58;;;;;;;17.35;8.23;;;10.40;99.90;;;;;;5096279;28;20461;-85
2022/01/01 03:13:24;;;;;;;16.88;8.98;;;10.40;99.90;;;;;;5113667;28;20114;-85
2022/01/01 03:15:49;;;;;;;18.38;8.52;;;10.40;99.90;;;;;;5095737;28;20065;-85
2022/01/01 03:18:15;;;;;;;19.52;9.15;;;10.40;99.90;;;;;;5095807;28;20042;-84
2022/01/01 03:20:40;;;;;;;17.55;8.55;;;10.40;99.90;;;;;;5096060;28;20444;-85
2022/01/01 03:23:06;;;;;;;16.70;9.10;;;10.30;99.90;;;;;;5096150;28;20493;-85
2022/01/01 03:25:32;;;;;;;17.75;9.60;;;10.30;99.90;;;;;;5099372;28;20469;-85
2022/01/01 03:27:57;;;;;;;17.20;9.20;;;10.30;99.90;;;;;;5117884;28;20103;-85
2022/01/01 03:30:23;;;;;;;16.33;8.90;;;10.40;99.90;;;;;;5117218;28;20024;-85
2022/01/01 03:32:48;;;;;;;16.50;8.60;;;10.40;99.90;;;;;;5099663;28;20065;-85
2022/01/01 03:35:14;;;;;;;19.88;9.23;;;10.30;99.90;;;;;;5117469;28;20053;-84
2022/01/01 03:37:40;;;;;;;21.33;8.90;;;10.30;99.90;;;;;;5099962;28;20057;-85
2022/01/01 03:40:06;;;;;;;18.30;8.85;;;10.30;99.90;;;;;;5099661;28;20031;-85
2022/01/01 03:42:32;;;;;;;18.30;9.48;;;10.30;99.90;;;;;;5117136;28;20036;-85
2022/01/01 03:44:58;;;;;;;18.80;8.95;;;10.30;99.90;;;;;;5099450;28;20024;-85
2022/01/01 03:47:24;;;;;;;19.90;9.35;;;10.30;99.90;;;;;;5116961;28;20020;-85
2022/01/01 03:49:49;;;;;;;15.93;8.73;;;10.30;99.90;;;;;;5099340;28;20027;-83
2022/01/01 03:52:15;;;;;;;17.85;9.32;;;10.30;99.90;;;;;;5098757;28;20035;-83
2022/01/01 03:54:41;;;;;;;21.02;10.10;;;10.20;99.90;;;;;;5117460;28;20042;-85
2022/01/01 03:57:07;;;;;;;21.52;9.88;;;10.20;99.90;;;;;;5099804;28;20023;-85
2022/01/01 03:59:34;;;;;;;17.80;9.50;;;10.20;99.90;;;;;;5098724;28;20023;-85
2022/01/01 04:01:59;;;;;;;18.23;9.10;;;10.10;99.90;;;;;;5099148;28;20105;-85
2022/01/01 04:04:26;;;;;;;20.73;10.25;;;10.10;99.90;;;;;;5098667;28;20053;-85
2022/01/01 04:06:52;;;;;;;17.27;9.10;;;10.10;99.90;;;;;;5116904;28;20104;-85
2022/01/01 04:09:18;;;;;;;21.38;10.15;;;10.10;99.90;;;;;;5116426;28;20031;-84
2022/01/01 04:11:44;;;;;;;20.33;10.30;;;10.00;99.90;;;;;;5098918;28;20035;-85
2022/01/01 04:14:15;;;;;;;16.27;9.10;;;10.00;99.90;;;;;;5116883;28;20023;-85
2022/01/01 04:16:41;;;;;;;18.63;10.18;;;10.00;99.90;;;;;;5116971;28;20047;-85
2022/01/01 04:19:08;;;;;;;18.27;8.75;;;10.00;99.90;;;;;;5116962;28;20031;-85
2022/01/01 04:21:34;;;;;;;16.98;9.13;;;9.90;99.90;;;;;;5098139;28;20465;-85
2022/01/01 04:24:00;;;;;;;21.67;9.65;;;9.90;99.90;;;;;;5116803;28;20087;-85
2022/01/01 04:26:27;;;;;;;21.02;9.93;;;9.90;99.90;;;;;;5098186;28;20385;-85
2022/01/01 04:28:52;;;;;;;20.23;9.13;;;9.90;99.90;;;;;;5098411;28;20084;-85
2022/01/01 04:31:18;;;;;;;17.65;9.00;;;9.80;99.90;;;;;;5098222;28;20122;-84
2022/01/01 04:33:44;;;;;;;16.48;8.65;;;9.80;99.90;;;;;;5098166;28;20465;-85
2022/01/01 04:36:10;;;;;;;19.40;8.60;;;9.80;99.90;;;;;;5098042;28;20027;-85
2022/01/01 04:38:44;;;;;;;20.15;9.60;;;9.80;99.90;;;;;;5097697;28;20032;-85
2022/01/01 04:41:15;;;;;;;16.60;9.13;;;9.80;99.90;;;;;;5098401;28;20020;-85
2022/01/01 04:43:41;;;;;;;18.90;8.88;;;9.80;99.90;;;;;;5097642;28;20119;-85
2022/01/01 04:46:08;;;;;;;20.65;8.63;;;9.70;99.90;;;;;;5098260;28;20456;-84
2022/01/01 04:48:37;;;;;;;19.40;9.30;;;9.70;99.90;;;;;;5115609;28;20103;-84
2022/01/01 04:51:11;;;;;;;15.40;8.18;;;9.70;99.90;;;;;;5098256;28;20164;-83
2022/01/01 04:53:43;;;;;;;16.02;8.30;;;9.80;99.90;;;;;;5115748;28;20028;-84
2022/01/01 04:56:09;;;;;;;19.75;9.05;;;9.70;99.90;;;;;;5098310;28;20031;-85
2022/01/01 04:58:35;;;;;;;19.00;9.60;;;9.70;99.90;;;;;;5097763;28;20046;-85
2022/01/01 05:01:01;;;;;;;20.52;9.77;;;9.70;99.90;;;;;;5098130;28;20023;-85
2022/01/01 05:03:26;;;;;;;25.25;11.02;;;9.60;99.90;;;;;;5097792;28;20370;-84
2022/01/01 05:05:52;;;;;;;25.55;11.82;;;9.60;99.90;;;;;;5098056;28;20027;-85
2022/01/01 05:08:18;;;;;;;20.13;9.23;;;9.60;99.90;;;;;;5098008;28;20027;-85
2022/01/01 05:10:43;;;;;;;20.45;10.02;;;9.70;99.90;;;;;;5097517;28;20028;-85
2022/01/01 05:13:09;;;;;;;17.45;8.75;;;9.70;99.90;;;;;;5097932;28;20031;-85
2022/01/01 05:15:34;;;;;;;17.92;8.85;;;9.80;99.90;;;;;;5097279;28;20229;-85
2022/01/01 05:18:00;;;;;;;15.52;8.63;;;9.80;99.90;;;;;;5097620;28;20024;-85
2022/01/01 05:20:27;;;;;;;19.42;8.82;;;9.80;99.90;;;;;;5097435;28;20020;-85
2022/01/01 05:22:52;;;;;;;22.92;8.82;;;9.80;99.90;;;;;;5097910;28;20069;-85
2022/01/01 05:25:18;;;;;;;18.20;8.63;;;9.80;99.90;;;;;;5115803;28;20035;-85
2022/01/01 05:27:44;;;;;;;20.42;8.88;;;9.90;99.90;;;;;;5115234;28;20030;-85
2022/01/01 05:30:10;;;;;;;17.30;9.07;;;10.00;99.90;;;;;;5115609;28;20028;-85
2022/01/01 05:32:36;;;;;;;18.73;8.90;;;10.00;99.90;;;;;;5096727;28;20038;-85
2022/01/01 05:35:02;;;;;;;18.35;9.45;;;9.90;99.90;;;;;;5097075;28;20040;-85
2022/01/01 05:37:28;;;;;;;19.83;8.40;;;9.90;99.90;;;;;;5096897;28;20468;-85
2022/01/01 05:39:54;;;;;;;15.90;8.30;;;9.90;99.90;;;;;;5115249;28;20035;-85
2022/01/01 05:42:19;;;;;;;18.27;8.63;;;9.90;99.90;;;;;;5097233;28;20480;-85
2022/01/01 05:44:45;;;;;;;18.13;8.75;;;10.00;99.90;;;;;;5097255;28;20039;-84
2022/01/01 05:47:11;;;;;;;15.95;8.20;;;9.90;99.90;;;;;;5096333;28;20034;-85
2022/01/01 05:49:36;;;;;;;14.75;7.93;;;9.90;99.90;;;;;;5096500;28;20088;-85
2022/01/01 05:52:02;;;;;;;16.55;7.90;;;10.00;99.90;;;;;;5096778;28;20028;-85
2022/01/01 05:54:28;;;;;;;17.83;8.63;;;10.00;99.90;;;;;;5096633;28;20028;-85
2022/01/01 05:56:53;;;;;;;14.60;7.80;;;9.90;99.90;;;;;;5115053;28;20448;-85
2022/01/01 05:59:19;;;;;;;14.00;7.78;;;9.90;99.90;;;;;;5097222;28;20046;-85
2022/01/01 06:01:44;;;;;;;17.75;8.07;;;9.90;99.90;;;;;;5114408;28;20448;-85
2022/01/01 06:04:10;;;;;;;21.23;8.70;;;9.90;99.90;;;;;;5097332;28;20464;-85
2022/01/01 06:06:36;;;;;;;16.83;8.35;;;9.90;99.90;;;;;;5096702;28;20027;-85
2022/01/01 06:09:01;;;;;;;17.05;8.70;;;9.90;99.90;;;;;;5114855;28;20027;-85
2022/01/01 06:11:27;;;;;;;14.20;7.75;;;9.90;99.90;;;;;;5096278;28;20024;-85
2022/01/01 06:13:53;;;;;;;17.33;9.07;;;9.90;99.90;;;;;;5114410;28;20067;-85
2022/01/01 06:16:19;;;;;;;18.33;8.75;;;9.90;99.90;;;;;;5096594;28;20469;-85
2022/01/01 06:18:44;;;;;;;16.55;8.52;;;9.90;99.90;;;;;;5096263;28;20024;-85
2022/01/01 06:21:10;;;;;;;16.00;8.52;;;9.90;99.90;;;;;;5096728;28;20504;-85
2022/01/01 06:23:37;;;;;;;15.57;8.13;;;9.90;99.90;;;;;;5095703;28;20055;-85
2022/01/01 06:26:07;;;;;;;17.83;8.27;;;9.90;99.90;;;;;;5096760;28;20020;-85
2022/01/01 06:28:32;;;;;;;14.55;7.93;;;9.90;99.90;;;;;;5096281;28;20130;-85
2022/01/01 06:30:58;;;;;;;17.55;8.52;;;9.80;99.90;;;;;;5114516;28;20055;-85
2022/01/01 06:33:24;;;;;;;18.33;8.48;;;9.80;99.90;;;;;;5096215;28;20036;-84
2022/01/01 06:35:50;;;;;;;16.27;8.05;;;9.80;99.90;;;;;;5096654;28;20073;-85
2022/01/01 06:38:16;;;;;;;17.13;7.97;;;9.80;99.90;;;;;;5096467;28;20419;-85
2022/01/01 06:40:44;;;;;;;14.30;7.38;;;9.80;99.90;;;;;;5095929;28;20111;-85
2022/01/01 06:43:14;;;;;;;15.88;7.95;;;9.80;99.90;;;;;;5114223;28;20073;-85
2022/01/01 06:45:40;;;;;;;15.30;7.82;;;9.80;99.90;;;;;;5095994;28;20024;-85
2022/01/01 06:48:06;;;;;;;17.10;8.13;;;9.80;99.90;;;;;;5096427;28;20062;-85
2022/01/01 06:50:33;;;;;;;16.23;8.15;;;9.80;99.90;;;;;;5095864;28;20028;-85
2022/01/01 06:52:59;;;;;;;16.60;7.80;;;9.80;99.90;;;;;;5096095;28;20119;-85
2022/01/01 06:55:24;;;;;;;14.27;7.80;;;9.70;99.90;;;;;;5096501;28;20066;-85
2022/01/01 06:57:51;;;;;;;16.17;8.02;;;9.70;99.90;;;;;;5097577;28;20057;-85
2022/01/01 07:00:17;;;;;;;17.08;8.32;;;9.60;99.90;;;;;;5100440;28;20027;-85
2022/01/01 07:02:45;;;;;;;18.35;8.02;;;9.60;99.90;;;;;;5118085;28;20035;-85
2022/01/01 07:05:11;;;;;;;15.50;7.28;;;9.60;99.90;;;;;;5100324;28;20024;-85
2022/01/01 07:07:38;;;;;;;14.93;8.05;;;9.50;99.90;;;;;;5117970;28;20063;-85
2022/01/01 07:10:05;;;;;;;17.75;7.63;;;9.50;99.90;;;;;;5100370;28;20122;-85
2022/01/01 07:12:31;;;;;;;16.30;7.70;;;9.50;99.90;;;;;;5099652;28;20032;-85
2022/01/01 07:14:56;;;;;;;17.63;8.13;;;9.50;99.90;;;;;;5118041;28;20479;-85
2022/01/01 07:17:22;;;;;;;15.60;8.13;;;9.50;99.90;;;;;;5100253;28;20518;-85
2022/01/01 07:19:48;;;;;;;12.68;7.13;;;9.50;99.90;;;;;;5099583;28;20034;-85
2022/01/01 07:22:13;;;;;;;13.80;7.70;;;9.40;99.90;;;;;;5099594;28;20044;-85
2022/01/01 07:24:39;;;;;;;17.63;8.65;;;9.40;99.90;;;;;;5099570;28;20054;-84
2022/01/01 07:27:05;;;;;;;15.32;7.63;;;9.40;99.90;;;;;;5117792;28;20559;-85
2022/01/01 07:29:31;;;;;;;14.65;7.40;;;9.40;99.90;;;;;;5099694;28;20058;-84
2022/01/01 07:31:57;;;;;;;14.68;7.82;;;9.40;99.90;;;;;;5100048;28;20030;-85
2022/01/01 07:34:22;;;;;;;18.58;7.95;;;9.40;99.90;;;;;;5099881;28;20042;-85
2022/01/01 07:36:49;;;;;;;14.73;7.38;;;9.40;99.90;;;;;;5117362;28;20054;-85
2022/01/01 07:39:15;;;;;;;15.18;7.80;;;9.50;99.90;;;;;;5117794;28;20030;-85
2022/01/01 07:41:41;;;;;;;13.80;7.57;;;9.50;99.90;;;;;;5099504;28;20051;-85
2022/01/01 07:44:07;;;;;;;13.15;7.60;;;9.50;99.90;;;;;;5099558;28;20480;-85
2022/01/01 07:46:33;;;;;;;12.93;7.38;;;9.50;99.90;;;;;;5117180;28;20023;-84
2022/01/01 07:48:58;;;;;;;15.57;7.20;;;9.50;99.90;;;;;;5117513;28;20019;-85
2022/01/01 07:51:24;;;;;;;12.77;7.20;;;9.50;99.90;;;;;;5099439;28;20046;-85
2022/01/01 07:53:50;;;;;;;16.88;7.43;;;9.50;99.90;;;;;;5098873;28;20498;-85
2022/01/01 07:56:15;;;;;;;12.68;6.93;;;9.50;99.90;;;;;;5117525;28;20051;-85
2022/01/01 07:58:41;;;;;;;15.93;7.35;;;9.50;99.90;;;;;;5116889;28;20019;-84
2022/01/01 08:01:07;;;;;;;13.80;6.93;;;9.50;99.90;;;;;;5117186;28;20452;-85
2022/01/01 08:03:32;;;;;;;14.13;7.40;;;9.60;99.90;;;;;;5098724;28;20118;-85
2022/01/01 08:05:58;;;;;;;16.10;7.68;;;9.60;99.90;;;;;;5099284;28;20024;-85
2022/01/01 08:08:24;;;;;;;15.23;7.80;;;9.50;99.90;;;;;;5098900;28;20528;-85
2022/01/01 08:10:49;;;;;;;12.60;6.78;;;9.60;99.90;;;;;;5115547;28;20275;-85
2022/01/01 08:13:23;;;;;;;14.77;7.15;;;9.60;99.90;;;;;;5099188;28;20590;-85
2022/01/01 08:15:51;;;;;;;12.85;7.10;;;9.60;99.90;;;;;;5098182;28;20096;-85
2022/01/01 08:18:17;;;;;;;14.13;7.05;;;9.60;99.90;;;;;;5098974;28;20024;-85
2022/01/01 08:20:43;;;;;;;13.20;6.93;;;9.70;99.90;;;;;;5098413;28;20531;-85
2022/01/01 08:23:09;;;;;;;15.27;7.15;;;9.70;99.90;;;;;;5098938;28;20043;-85
2022/01/01 08:25:35;;;;;;;16.33;6.80;;;9.70;99.90;;;;;;5116294;28;20024;-84
2022/01/01 08:28:01;;;;;;;14.70;7.13;;;9.80;99.90;;;;;;5098616;28;20479;-85
2022/01/01 08:30:27;;;;;;;13.02;6.72;;;9.80;99.90;;;;;;5098899;28;20088;-85
2022/01/01 08:32:52;;;;;;;14.18;6.63;;;9.70;99.90;;;;;;5098168;28;20034;-85
2022/01/01 08:35:18;;;;;;;13.23;6.65;;;9.70;99.90;;;;;;5098673;28;20035;-85
2022/01/01 08:37:44;;;;;;;14.35;7.00;;;9.80;99.90;;;;;;5098416;28;20030;-85
2022/01/01 08:40:13;;;;;;;12.80;7.13;;;9.80;99.90;;;;;;5098772;28;20023;-85
2022/01/01 08:42:39;;;;;;;13.00;7.15;;;9.80;99.90;;;;;;5116111;28;20028;-85
2022/01/01 08:45:05;;;;;;;14.07;7.28;;;9.90;99.90;;;;;;5098394;28;20057;-86
2022/01/01 08:47:30;;;;;;;12.45;6.75;;;10.00;99.90;;;;;;5098236;28;20088;-85
2022/01/01 08:49:56;;;;;;;13.88;7.10;;;9.90;99.90;;;;;;5097876;28;20360;-86
2022/01/01 08:52:23;;;;;;;12.73;7.32;;;10.00;99.90;;;;;;5098095;28;20085;-85
2022/01/01 08:54:55;;;;;;;13.93;6.65;;;10.10;99.90;;;;;;5097363;28;20027;-86
2022/01/01 08:57:21;;;;;;;14.05;6.60;;;10.00;99.90;;;;;;5098306;28;20114;-85
2022/01/01 08:59:46;;;;;;;15.43;7.63;;;10.00;99.90;;;;;;5116090;28;20066;-86
2022/01/01 09:02:12;;;;;;;14.23;6.82;;;10.00;99.90;;;;;;5097824;28;20031;-86
2022/01/01 09:04:38;;;;;;;13.80;6.93;;;10.00;99.90;;;;;;5097617;28;20106;-82
2022/01/01 09:07:03;;;;;;;14.63;6.97;;;10.10;99.90;;;;;;5098109;28;20073;-85
2022/01/01 09:09:29;;;;;;;11.82;7.00;;;10.10;99.90;;;;;;5115936;28;20030;-85
2022/01/01 09:11:55;;;;;;;13.77;6.90;;;10.10;99.90;;;;;;5115347;28;20107;-85
2022/01/01 09:14:20;;;;;;;13.07;6.72;;;10.20;99.90;;;;;;5099336;28;20028;-85
2022/01/01 09:16:46;;;;;;;14.43;7.28;;;10.20;99.90;;;;;;5097483;28;20024;-85
2022/01/01 09:19:12;;;;;;;12.40;6.60;;;10.20;99.90;;;;;;5115924;28;20096;-85
2022/01/01 09:21:38;;;;;;;14.80;6.85;;;10.30;99.90;;;;;;5097406;28;20035;-86
2022/01/01 09:24:04;;;;;;;14.40;7.32;;;10.30;99.90;;;;;;5094097;28;20044;-84
2022/01/01 09:26:30;;;;;;;13.65;6.97;;;10.30;99.90;;;;;;5095203;28;20020;-85
2022/01/01 09:28:56;;;;;;;13.70;6.43;;;10.30;99.90;;;;;;5095178;28;20030;-87
2022/01/01 09:31:22;;;;;;;12.23;7.07;;;10.30;99.90;;;;;;5095110;28;20036;-86
2022/01/01 09:33:47;;;;;;;14.40;6.85;;;10.30;99.90;;;;;;5094702;28;20087;-85
2022/01/01 09:36:17;;;;;;;14.75;7.10;;;10.30;99.90;;;;;;5093959;28;20381;-85
2022/01/01 09:38:44;;;;;;;13.13;6.82;;;10.30;99.90;;;;;;5093570;28;20119;-85
2022/01/01 09:41:10;;;;;;;14.57;7.53;;;10.40;99.90;;;;;;5094143;28;20028;-85
2022/01/01 09:43:36;;;;;;;14.98;7.57;;;10.40;99.90;;;;;;5093413;28;20451;-85
2022/01/01 09:46:03;;;;;;;14.10;6.60;;;10.50;99.90;;;;;;5094658;28;20066;-86
2022/01/01 09:48:29;;;;;;;11.05;5.95;;;10.50;99.90;;;;;;5093790;28;20050;-84
2022/01/01 09:50:58;;;;;;;11.80;6.47;;;10.50;99.90;;;;;;5093615;28;20061;-85
2022/01/01 09:53:25;;;;;;;12.52;6.20;;;10.50;99.90;;;;;;5093533;28;20056;-85
2022/01/01 09:55:56;;;;;;;12.00;6.55;;;10.50;99.90;;;;;;5093250;28;20085;-85
2022/01/01 09:58:23;;;;;;;11.15;5.95;;;10.50;99.90;;;;;;5094577;28;20028;-85
2022/01/01 10:00:50;;;;;;;11.25;6.47;;;10.50;99.90;;;;;;5092995;28;20031;-85
2022/01/01 10:03:16;;;;;;;10.00;5.60;;;10.50;99.90;;;;;;5093553;28;20036;-85
2022/01/01 10:05:58;;;;;;;11.55;5.97;;;10.50;99.90;;;;;;5093079;28;20028;-84
2022/01/01 10:08:24;;;;;;;10.85;5.70;;;10.60;99.90;;;;;;5094205;28;20610;-84
2022/01/01 10:10:51;;;;;;;12.70;5.95;;;10.60;99.90;;;;;;5092876;28;20034;-84
2022/01/01 10:13:17;;;;;;;10.50;6.30;;;10.60;99.90;;;;;;5093436;28;20024;-84
2022/01/01 10:15:43;;;;;;;10.32;5.28;;;10.70;99.90;;;;;;5092991;28;20575;-85
2022/01/01 10:18:08;;;;;;;9.98;5.13;;;10.80;99.90;;;;;;5094235;28;20079;-85
2022/01/01 10:20:43;;;;;;;10.38;5.55;;;10.80;99.90;;;;;;5093488;28;20385;-85
2022/01/01 10:23:11;;;;;;;8.98;4.85;;;10.90;99.90;;;;;;5093188;28;20071;-85
2022/01/01 10:28:21;;;;;;;8.20;4.88;;;11.00;99.90;;;;;;5094321;28;20031;-85
2022/01/01 10:30:48;;;;;;;9.50;5.40;;;11.00;99.90;;;;;;5093008;28;20451;-85
2022/01/01 10:33:19;;;;;;;9.30;4.75;;;11.00;99.90;;;;;;5092712;28;20032;-84
2022/01/01 10:35:50;;;;;;;8.18;4.78;;;11.00;99.90;;;;;;5092659;28;20028;-85
2022/01/01 10:38:24;;;;;;;9.20;4.90;;;11.00;99.90;;;;;;5092830;28;20030;-85
2022/01/01 10:40:56;;;;;;;9.82;5.13;;;11.10;99.90;;;;;;5092393;28;20024;-84
2022/01/01 10:43:40;;;;;;;10.13;5.03;;;11.10;99.90;;;;;;5092882;28;20081;-84
2022/01/01 10:46:10;;;;;;;10.48;4.95;;;11.10;99.90;;;;;;5093420;28;20465;-85
2022/01/01 10:51:02;;;;;;;8.60;5.03;;;11.30;99.90;;;;;;5093609;28;20077;-84
2022/01/01 10:53:28;;;;;;;8.98;4.57;;;11.30;99.90;;;;;;5092869;28;20074;-85
2022/01/01 10:55:58;;;;;;;7.75;4.13;;;11.30;99.90;;;;;;5092314;28;20029;-84
2022/01/01 10:58:29;;;;;;;9.00;3.80;;;11.40;99.90;;;;;;5092946;28;20036;-85
2022/01/01 11:01:06;;;;;;;8.75;4.18;;;11.40;99.90;;;;;;5092609;28;20021;-85
2022/01/01 11:03:41;;;;;;;7.40;3.70;;;11.40;99.90;;;;;;5092871;28;20036;-86
2022/01/01 11:06:12;;;;;;;5.05;2.78;;;11.40;99.90;;;;;;5093950;28;20020;-85
2022/01/01 11:08:39;;;;;;;4.55;3.05;;;11.50;99.90;;;;;;5092956;28;20050;-86
2022/01/01 11:11:05;;;;;;;6.63;3.05;;;11.50;99.90;;;;;;5092229;28;20491;-84
2022/01/01 11:13:32;;;;;;;4.90;2.88;;;11.60;99.90;;;;;;5092558;28;20055;-85
2022/01/01 11:15:58;;;;;;;6.15;2.92;;;11.70;99.90;;;;;;5092496;28;20098;-85
2022/01/01 11:18:25;;;;;;;5.22;2.85;;;11.70;99.90;;;;;;5092647;28;20039;-84
2022/01/01 11:20:51;;;;;;;7.25;3.38;;;11.70;99.90;;;;;;5092215;28;20469;-84
2022/01/01 11:23:19;;;;;;;6.78;2.88;;;11.80;99.90;;;;;;5092336;28;20067;-85
2022/01/01 11:25:45;;;;;;;5.20;2.85;;;11.80;99.90;;;;;;5092205;28;20051;-84
2022/01/01 11:28:17;;;;;;;5.55;3.17;;;11.90;99.90;;;;;;5092838;28;20073;-84
2022/01/01 11:30:57;;;;;;;5.53;3.08;;;11.90;99.90;;;;;;5092477;28;20112;-84
2022/01/01 11:33:32;;;;;;;5.57;3.15;;;11.90;99.90;;;;;;5092599;28;20036;-85
2022/01/01 11:36:00;;;;;;;4.72;2.90;;;12.00;99.90;;;;;;5091935;28;20420;-85
2022/01/01 11:38:31;;;;;;;6.95;2.78;;;12.00;99.90;;;;;;5092561;28;20024;-85
2022/01/01 11:40:58;;;;;;;4.93;3.03;;;12.10;99.90;;;;;;5092135;28;20035;-85
2022/01/01 11:43:34;;;;;;;5.45;2.92;;;12.10;99.90;;;;;;5092432;28;20075;-85
2022/01/01 11:46:03;;;;;;;4.97;2.95;;;12.10;99.90;;;;;;5095042;28;20031;-85
2022/01/01 11:48:30;;;;;;;7.00;2.75;;;12.20;99.90;;;;;;5096079;28;20027;-84
2022/01/01 11:50:56;;;;;;;6.03;3.35;;;12.20;99.90;;;;;;5095660;28;20489;-85
2022/01/01 11:53:29;;;;;;;5.30;3.00;;;12.30;99.90;;;;;;5095955;28;20028;-85
2022/01/01 11:56:12;;;;;;;6.55;3.30;;;12.30;99.90;;;;;;5095291;28;20062;-85
2022/01/01 11:58:49;;;;;;;5.72;3.10;;;12.30;99.90;;;;;;5097011;28;20024;-85
2022/01/01 12:01:19;;;;;;;6.50;2.83;;;12.40;99.90;;;;;;5095679;28;20451;-85
2022/01/01 12:03:52;;;;;;;5.72;2.97;;;12.40;99.90;;;;;;5095151;28;20036;-84
2022/01/01 12:06:19;;;;;;;5.00;2.83;;;12.50;99.90;;;;;;5095817;28;20032;-85
2022/01/01 12:08:46;;;;;;;5.22;2.95;;;12.60;99.90;;;;;;5095272;28;20028;-84
2022/01/01 12:11:29;;;;;;;4.88;2.50;;;12.60;99.90;;;;;;5095964;28;20074;-86
2022/01/01 12:13:56;;;;;;;4.65;2.50;;;12.70;99.90;;;;;;5094612;28;20048;-85
2022/01/01 12:16:22;;;;;;;4.28;2.75;;;12.80;99.90;;;;;;5095373;28;20042;-85
2022/01/01 12:18:47;;;;;;;4.55;2.70;;;12.80;99.90;;;;;;5094893;28;20115;-85
2022/01/01 12:21:22;;;;;;;5.93;2.88;;;13.00;99.90;;;;;;5096775;28;20035;-85
2022/01/01 12:23:54;;;;;;;3.92;2.75;;;13.10;99.90;;;;;;5111317;28;20046;-85
2022/01/01 12:26:31;;;;;;;3.63;2.40;;;13.40;99.90;;;;;;5098830;28;20092;-85
2022/01/01 12:29:09;;;;;;;5.50;2.50;;;13.50;99.90;;;;;;5102192;28;20028;-86
2022/01/01 12:31:34;;;;;;;6.38;2.72;;;13.60;99.90;;;;;;5099058;28;20062;-86
2022/01/01 12:34:12;;;;;;;3.70;2.58;;;13.60;99.90;;;;;;5098713;28;20063;-87
2022/01/01 12:36:45;;;;;;;5.18;3.00;;;13.60;99.90;;;;;;5098464;28;20031;-86
2022/01/01 12:39:11;;;;;;;5.47;2.80;;;13.60;99.90;;;;;;5116677;28;20027;-85
2022/01/01 12:41:39;;;;;;;5.53;2.47;;;13.60;99.90;;;;;;5098944;28;20027;-86
2022/01/01 12:44:06;;;;;;;5.97;2.90;;;13.50;99.90;;;;;;5097807;28;20027;-86
2022/01/01 12:46:37;;;;;;;4.85;2.83;;;13.50;99.90;;;;;;5116333;28;20103;-86
2022/01/01 12:49:07;;;;;;;6.28;3.28;;;13.50;99.90;;;;;;5097625;28;20023;-86